Time;durP1;ratioP1;P1;durP2;ratioP2;P2;SDS_P1;SDS_P2;PMS_P1;PMS_P2;Temp;Humidity;BMP_temperature;BMP_pressure;BME280_temperature;BME280_humidity;BME280_pressure;Samples;Min_cycle;Max_cycle;Signal;HPM_P1;HPM_P2
2021/12/29 00:08:09;;;;;;;107.3;143.6;;;;;;;-4.1;78.8;97550;;;;
2021/12/29 00:19:09;;;;;;;107.3;143.6;;;;;;;-3.9;79;97550;;;;
2021/12/29 00:29:09;;;;;;;103.4;134.6;;;;;;;-3.8;79.3;97560;;;;
2021/12/29 00:40:10;;;;;;;103.4;134.6;;;;;;;-3.9;79.2;97550;;;;
2021/12/29 00:50:10;;;;;;;103.4;134.6;;;;;;;-3.8;78.7;97570;;;;
2021/12/29 01:01:09;;;;;;;54.9;62.7;;;;;;;-3.8;78.9;97550;;;;
2021/12/29 01:12:09;;;;;;;54.9;62.7;;;;;;;-3.8;78.7;97530;;;;
2021/12/29 01:23:09;;;;;;;57.5;66.4;;;;;;;-3.9;78.2;97530;;;;
2021/12/29 01:33:09;;;;;;;57.5;66.4;;;;;;;-4.1;78;97530;;;;
2021/12/29 01:43:09;;;;;;;57.5;66.4;;;;;;;-4.3;77.8;97530;;;;
2021/12/29 01:53:12;;;;;;;56;66.9;;;;;;;-4.6;78.3;97540;;;;
2021/12/29 02:03:09;;;;;;;56;66.9;;;;;;;-4.9;78.4;97530;;;;
2021/12/29 02:13:09;;;;;;;56;66.9;;;;;;;-4.7;78.8;97540;;;;
2021/12/29 02:23:14;;;;;;;55.1;64.5;;;;;;;-4.5;79.2;97540;;;;
2021/12/29 02:33:13;;;;;;;55.1;64.5;;;;;;;-4.1;80.1;97540;;;;
2021/12/29 02:43:12;;;;;;;55.1;64.5;;;;;;;-3.7;80;97540;;;;
2021/12/29 02:53:09;;;;;;;51.6;61.9;;;;;;;-3.5;80.1;97540;;;;
2021/12/29 03:04:11;;;;;;;51.6;61.9;;;;;;;-3.2;80;97540;;;;
2021/12/29 03:14:10;;;;;;;51.6;61.9;;;;;;;-3;79.8;97530;;;;
2021/12/29 03:24:09;;;;;;;50.5;58.2;;;;;;;-2.8;79.3;97540;;;;
2021/12/29 03:34:10;;;;;;;50.5;58.2;;;;;;;-2.6;79.5;97530;;;;
2021/12/29 03:45:09;;;;;;;50.5;58.2;;;;;;;-2.6;79.6;97540;;;;
2021/12/29 03:56:10;;;;;;;48.5;58;;;;;;;-2.5;78.8;97550;;;;
2021/12/29 04:07:10;;;;;;;48.5;58;;;;;;;-2.5;79.1;97550;;;;
2021/12/29 04:17:12;;;;;;;48.5;58;;;;;;;-2.6;79.2;97560;;;;
2021/12/29 04:27:09;;;;;;;49.1;57.6;;;;;;;-2.7;79.7;97570;;;;
2021/12/29 04:38:10;;;;;;;49.1;57.6;;;;;;;-2.5;79.8;97590;;;;
2021/12/29 04:49:12;;;;;;;49.1;57.6;;;;;;;-2.3;79.2;97600;;;;
2021/12/29 04:59:10;;;;;;;44.7;51;;;;;;;-2.4;79.6;97590;;;;
2021/12/29 05:10:10;;;;;;;44.7;51;;;;;;;-2.6;79.9;97570;;;;
2021/12/29 05:21:09;;;;;;;47.5;53;;;;;;;-2.4;79.8;97580;;;;
2021/12/29 05:31:10;;;;;;;47.5;53;;;;;;;-2;79.4;97610;;;;
2021/12/29 05:41:10;;;;;;;47.5;53;;;;;;;-2.1;78.8;97600;;;;
2021/12/29 05:51:12;;;;;;;42.8;51.7;;;;;;;-2.2;79.1;97610;;;;
2021/12/29 06:01:10;;;;;;;42.8;51.7;;;;;;;-2;79.2;97620;;;;
2021/12/29 06:12:10;;;;;;;42.8;51.7;;;;;;;-2;78.7;97630;;;;
2021/12/29 06:22:10;;;;;;;39;46.6;;;;;;;-2;78.5;97640;;;;
2021/12/29 06:33:10;;;;;;;39;46.6;;;;;;;-2;78.8;97650;;;;
2021/12/29 06:43:10;;;;;;;39;46.6;;;;;;;-1.9;78.8;97670;;;;
2021/12/29 06:53:10;;;;;;;41.4;47.9;;;;;;;-2;78.5;97680;;;;
2021/12/29 07:03:10;;;;;;;41.4;47.9;;;;;;;-1.9;78.8;97690;;;;
2021/12/29 07:13:10;;;;;;;41.4;47.9;;;;;;;-1.7;78.9;97710;;;;
2021/12/29 07:24:10;;;;;;;47.4;60.3;;;;;;;-1.6;78.6;97700;;;;
2021/12/29 07:34:10;;;;;;;47.4;60.3;;;;;;;-1.4;78.3;97700;;;;
2021/12/29 07:44:11;;;;;;;47.4;60.3;;;;;;;-1.2;77.7;97720;;;;
2021/12/29 07:55:10;;;;;;;47.4;54.1;;;;;;;-1.3;77.4;97720;;;;
2021/12/29 08:05:10;;;;;;;47.4;54.1;;;;;;;-1.1;77.4;97740;;;;
2021/12/29 08:16:10;;;;;;;47.4;54.1;;;;;;;-0.9;77.1;97750;;;;
2021/12/29 08:26:10;;;;;;;46;52.2;;;;;;;-0.6;77.5;97750;;;;
2021/12/29 08:36:10;;;;;;;46;52.2;;;;;;;-0.3;77.1;97750;;;;
2021/12/29 08:46:10;;;;;;;46;52.2;;;;;;;-0.3;76.9;97750;;;;
2021/12/29 08:56:10;;;;;;;53.8;62.2;;;;;;;-0.1;76.8;97760;;;;
2021/12/29 09:19:42;;;;;;;52.1;59.1;;;;;;;0.3;76.1;97760;;;;
2021/12/29 09:34:22;;;;;;;52.1;59.1;;;;;;;0.7;74.8;97770;;;;
2021/12/29 09:44:22;;;;;;;52.1;59.1;;;;;;;0.8;75.5;97770;;;;
2021/12/29 09:54:22;;;;;;;62.3;69.8;;;;;;;1;74.7;97780;;;;
2021/12/29 10:05:24;;;;;;;62.3;69.8;;;;;;;0.8;75.1;97780;;;;
2021/12/29 10:16:24;;;;;;;62.3;69.8;;;;;;;0.9;74.9;97780;;;;
2021/12/29 10:27:23;;;;;;;58.8;74.2;;;;;;;0.9;76.1;97790;;;;
2021/12/29 10:38:22;;;;;;;58.8;74.2;;;;;;;1.3;75.1;97780;;;;
2021/12/29 10:48:22;;;;;;;53.6;61;;;;;;;1.5;74.9;97780;;;;
2021/12/29 10:59:23;;;;;;;53.6;61;;;;;;;1.9;74.4;97790;;;;
2021/12/29 11:09:22;;;;;;;53.6;61;;;;;;;2;73.6;97780;;;;
2021/12/29 11:20:22;;;;;;;54.8;64.6;;;;;;;2;73.2;97780;;;;
2021/12/29 11:30:22;;;;;;;54.8;64.6;;;;;;;2.1;73.4;97780;;;;
2021/12/29 11:53:48;;;;;;;64.3;73.7;;;;;;;2.6;71.9;97790;;;;
2021/12/29 12:03:48;;;;;;;64.3;73.7;;;;;;;2.7;72.3;97790;;;;
2021/12/29 12:13:48;;;;;;;64.3;73.7;;;;;;;3;71.4;97800;;;;
2021/12/29 12:24:48;;;;;;;76.1;90.9;;;;;;;3.8;70.2;97800;;;;
2021/12/29 12:34:48;;;;;;;76.1;90.9;;;;;;;4.1;69.1;97810;;;;
2021/12/29 12:44:48;;;;;;;76.1;90.9;;;;;;;3.8;69.4;97830;;;;
2021/12/29 12:54:48;;;;;;;60.5;69.8;;;;;;;3.3;71.2;97850;;;;
2021/12/29 13:05:48;;;;;;;60.5;69.8;;;;;;;4.1;70;97860;;;;
2021/12/29 13:16:48;;;;;;;60.5;69.8;;;;;;;3.5;71;97870;;;;
2021/12/29 13:27:48;;;;;;;90.2;105.7;;;;;;;3;72.8;97880;;;;
2021/12/29 13:37:48;;;;;;;90.2;105.7;;;;;;;3.4;71.8;97890;;;;
2021/12/29 13:48:48;;;;;;;71.9;88.4;;;;;;;3.4;71.9;97900;;;;
2021/12/29 13:58:48;;;;;;;71.9;88.4;;;;;;;3.3;72.2;97910;;;;
2021/12/29 14:08:48;;;;;;;71.9;88.4;;;;;;;3.2;72.8;97920;;;;
2021/12/29 14:19:48;;;;;;;65.6;73.8;;;;;;;2.9;72.6;97930;;;;
2021/12/29 14:29:48;;;;;;;65.6;73.8;;;;;;;2.6;72.2;97930;;;;
2021/12/29 14:40:48;;;;;;;65.6;73.8;;;;;;;2.1;72.4;97950;;;;
2021/12/29 14:50:50;;;;;;;70;79;;;;;;;1.6;73.3;97970;;;;
2021/12/29 15:01:48;;;;;;;70;79;;;;;;;1.1;75.1;97990;;;;
2021/12/29 15:11:48;;;;;;;70;79;;;;;;;0.8;75.9;98010;;;;
2021/12/29 15:22:48;;;;;;;90.6;110.1;;;;;;;0.7;76.7;98030;;;;
2021/12/29 15:33:48;;;;;;;90.6;110.1;;;;;;;0.7;77.7;98030;;;;
2021/12/29 15:43:48;;;;;;;90.6;110.1;;;;;;;1;78.6;98050;;;;
2021/12/29 15:53:48;;;;;;;111.9;131.8;;;;;;;1.1;78.9;98060;;;;
2021/12/29 16:03:48;;;;;;;111.9;131.8;;;;;;;1.2;79.5;98080;;;;
2021/12/29 16:13:48;;;;;;;111.9;131.8;;;;;;;1.2;80;98080;;;;
2021/12/29 16:24:48;;;;;;;114.8;129.7;;;;;;;1.3;79.4;98080;;;;
2021/12/29 16:35:48;;;;;;;114.8;129.7;;;;;;;1.2;79.3;98080;;;;
2021/12/29 16:45:49;;;;;;;114.8;129.7;;;;;;;1.3;79.1;98100;;;;
2021/12/29 16:56:48;;;;;;;113.1;130.6;;;;;;;1.3;79.3;98120;;;;
2021/12/29 17:07:48;;;;;;;113.1;130.6;;;;;;;1.4;79.7;98120;;;;
2021/12/29 17:17:48;;;;;;;111.4;128.8;;;;;;;1.7;80.9;98130;;;;
2021/12/29 17:28:48;;;;;;;111.4;128.8;;;;;;;1.9;80.9;98150;;;;
2021/12/29 17:38:48;;;;;;;111.4;128.8;;;;;;;2.1;80.6;98160;;;;
2021/12/29 17:48:48;;;;;;;103.7;116;;;;;;;2.3;80.3;98160;;;;
2021/12/29 17:59:48;;;;;;;103.7;116;;;;;;;2.4;80;98180;;;;
2021/12/29 18:09:48;;;;;;;103.7;116;;;;;;;2.6;79.5;98190;;;;
2021/12/29 18:20:48;;;;;;;119.2;135.5;;;;;;;2.5;78;98200;;;;
2021/12/29 18:30:48;;;;;;;119.2;135.5;;;;;;;2.3;78.1;98210;;;;
2021/12/29 18:40:48;;;;;;;119.2;135.5;;;;;;;2.2;78.2;98210;;;;
2021/12/29 18:51:48;;;;;;;165.4;184.6;;;;;;;2.3;78.4;98220;;;;
2021/12/29 19:02:48;;;;;;;165.4;184.6;;;;;;;2.2;78.5;98230;;;;
2021/12/29 19:12:49;;;;;;;165.4;184.6;;;;;;;2.1;78.5;98230;;;;
2021/12/29 19:23:48;;;;;;;166.5;185.7;;;;;;;2.2;79.8;98230;;;;
2021/12/29 19:33:48;;;;;;;166.5;185.7;;;;;;;2.3;80.7;98230;;;;
2021/12/29 19:43:48;;;;;;;166.5;185.7;;;;;;;2.4;80.8;98250;;;;
2021/12/29 19:54:48;;;;;;;113.9;131.5;;;;;;;2.4;80;98250;;;;
2021/12/29 20:05:49;;;;;;;113.9;131.5;;;;;;;2.2;79;98270;;;;
2021/12/29 20:15:48;;;;;;;113.9;131.5;;;;;;;2.2;79.1;98270;;;;
2021/12/29 20:26:48;;;;;;;169.3;189.1;;;;;;;2;79.9;98280;;;;
2021/12/29 20:36:48;;;;;;;169.3;189.1;;;;;;;1.9;79.6;98300;;;;
2021/12/29 20:46:48;;;;;;;180;201.5;;;;;;;1.9;79.6;98300;;;;
2021/12/29 20:56:48;;;;;;;180;201.5;;;;;;;1.8;79.1;98290;;;;
2021/12/29 21:07:48;;;;;;;180;201.5;;;;;;;1.5;78.9;98290;;;;
2021/12/29 21:18:48;;;;;;;181.5;203.8;;;;;;;1.2;79.5;98280;;;;
2021/12/29 21:29:48;;;;;;;181.5;203.8;;;;;;;0.8;80.2;98280;;;;
2021/12/29 21:39:49;;;;;;;181.5;203.8;;;;;;;0.6;80.6;98280;;;;
2021/12/29 21:49:48;;;;;;;136.9;153.9;;;;;;;0.3;80.6;98280;;;;
2021/12/29 22:00:48;;;;;;;136.9;153.9;;;;;;;0.1;81.9;98270;;;;
2021/12/29 22:10:49;;;;;;;136.9;153.9;;;;;;;0.3;82.5;98280;;;;
2021/12/29 22:20:48;;;;;;;119.5;137.2;;;;;;;0.5;82.6;98280;;;;
2021/12/29 22:31:48;;;;;;;119.5;137.2;;;;;;;0.6;82.2;98290;;;;
2021/12/29 22:41:48;;;;;;;119.5;137.2;;;;;;;0.7;82.4;98300;;;;
2021/12/29 22:51:48;;;;;;;129.3;151.6;;;;;;;0.8;82;98310;;;;
2021/12/29 23:01:48;;;;;;;129.3;151.6;;;;;;;0.9;82;98320;;;;
2021/12/29 23:11:48;;;;;;;129.3;151.6;;;;;;;0.8;81.5;98330;;;;
2021/12/29 23:21:49;;;;;;;202.5;227.2;;;;;;;1;82.6;98330;;;;
2021/12/29 23:31:48;;;;;;;202.5;227.2;;;;;;;1.2;82.8;98330;;;;
2021/12/29 23:41:48;;;;;;;202.5;227.2;;;;;;;1.3;82.2;98340;;;;
2021/12/29 23:51:48;;;;;;;147.3;166.8;;;;;;;1.2;81.4;98350;;;;
